sensor_id;sensor_type;location;lat;lon;timestamp;P1;durP1;ratioP1;P2;durP2;ratioP2
61204;SDS011;47068;55.780;37.520;2024-02-26T00:01:26;950.17;;;207.77;;
61204;SDS011;47068;55.780;37.520;2024-02-26T00:03:52;906.55;;;199.60;;
61204;SDS011;47068;55.780;37.520;2024-02-26T00:06:17;925.10;;;200.13;;
61204;SDS011;47068;55.780;37.520;2024-02-26T00:08:43;938.33;;;201.65;;
61204;SDS011;47068;55.780;37.520;2024-02-26T00:11:09;902.90;;;201.07;;
61204;SDS011;47068;55.780;37.520;2024-02-26T00:13:35;926.75;;;198.52;;
61204;SDS011;47068;55.780;37.520;2024-02-26T00:16:02;964.33;;;209.17;;
61204;SDS011;47068;55.780;37.520;2024-02-26T00:18:28;940.70;;;200.50;;
61204;SDS011;47068;55.780;37.520;2024-02-26T00:20:54;928.93;;;204.40;;
61204;SDS011;47068;55.780;37.520;2024-02-26T00:23:19;954.23;;;203.70;;
61204;SDS011;47068;55.780;37.520;2024-02-26T00:25:45;980.87;;;227.93;;
61204;SDS011;47068;55.780;37.520;2024-02-26T00:28:10;962.45;;;206.73;;
61204;SDS011;47068;55.780;37.520;2024-02-26T00:30:36;956.72;;;218.25;;
61204;SDS011;47068;55.780;37.520;2024-02-26T00:33:01;924.53;;;196.87;;
61204;SDS011;47068;55.780;37.520;2024-02-26T00:35:27;1001.28;;;232.02;;
61204;SDS011;47068;55.780;37.520;2024-02-26T00:37:52;1003.30;;;237.27;;
61204;SDS011;47068;55.780;37.520;2024-02-26T00:40:18;873.20;;;187.77;;
61204;SDS011;47068;55.780;37.520;2024-02-26T00:42:44;882.47;;;190.75;;
61204;SDS011;47068;55.780;37.520;2024-02-26T00:45:14;916.03;;;207.60;;
61204;SDS011;47068;55.780;37.520;2024-02-26T00:47:41;913.73;;;205.83;;
61204;SDS011;47068;55.780;37.520;2024-02-26T00:50:06;1005.13;;;238.45;;
61204;SDS011;47068;55.780;37.520;2024-02-26T00:52:33;842.60;;;192.33;;
61204;SDS011;47068;55.780;37.520;2024-02-26T00:54:59;841.75;;;191.00;;
61204;SDS011;47068;55.780;37.520;2024-02-26T00:57:25;853.33;;;187.57;;
61204;SDS011;47068;55.780;37.520;2024-02-26T00:59:50;845.30;;;185.68;;
61204;SDS011;47068;55.780;37.520;2024-02-26T01:02:16;838.63;;;183.35;;
61204;SDS011;47068;55.780;37.520;2024-02-26T01:04:41;842.45;;;184.50;;
61204;SDS011;47068;55.780;37.520;2024-02-26T01:07:07;846.83;;;185.45;;
61204;SDS011;47068;55.780;37.520;2024-02-26T01:09:32;825.80;;;190.37;;
61204;SDS011;47068;55.780;37.520;2024-02-26T01:11:58;844.53;;;184.70;;
61204;SDS011;47068;55.780;37.520;2024-02-26T01:14:23;834.50;;;184.47;;
61204;SDS011;47068;55.780;37.520;2024-02-26T01:16:49;837.17;;;191.80;;
61204;SDS011;47068;55.780;37.520;2024-02-26T01:19:14;840.47;;;187.15;;
61204;SDS011;47068;55.780;37.520;2024-02-26T01:21:40;841.20;;;184.20;;
61204;SDS011;47068;55.780;37.520;2024-02-26T01:24:06;839.17;;;190.05;;
61204;SDS011;47068;55.780;37.520;2024-02-26T01:26:32;836.55;;;190.23;;
61204;SDS011;47068;55.780;37.520;2024-02-26T01:28:57;851.45;;;191.25;;
61204;SDS011;47068;55.780;37.520;2024-02-26T01:31:23;845.88;;;193.90;;
61204;SDS011;47068;55.780;37.520;2024-02-26T01:33:48;856.83;;;185.32;;
61204;SDS011;47068;55.780;37.520;2024-02-26T01:36:14;873.43;;;186.70;;
61204;SDS011;47068;55.780;37.520;2024-02-26T01:38:39;924.80;;;220.97;;
61204;SDS011;47068;55.780;37.520;2024-02-26T01:41:05;856.03;;;185.73;;
61204;SDS011;47068;55.780;37.520;2024-02-26T01:43:31;847.65;;;189.10;;
61204;SDS011;47068;55.780;37.520;2024-02-26T01:45:56;841.90;;;188.47;;
61204;SDS011;47068;55.780;37.520;2024-02-26T01:48:22;873.25;;;186.85;;
61204;SDS011;47068;55.780;37.520;2024-02-26T01:50:47;836.65;;;184.02;;
61204;SDS011;47068;55.780;37.520;2024-02-26T01:53:13;854.83;;;186.30;;
61204;SDS011;47068;55.780;37.520;2024-02-26T01:55:41;845.27;;;192.73;;
61204;SDS011;47068;55.780;37.520;2024-02-26T01:58:07;860.35;;;182.98;;
61204;SDS011;47068;55.780;37.520;2024-02-26T02:00:32;912.00;;;205.63;;
61204;SDS011;47068;55.780;37.520;2024-02-26T02:02:58;870.78;;;185.18;;
61204;SDS011;47068;55.780;37.520;2024-02-26T02:05:24;936.63;;;222.32;;
61204;SDS011;47068;55.780;37.520;2024-02-26T02:07:51;883.27;;;192.73;;
61204;SDS011;47068;55.780;37.520;2024-02-26T02:10:18;861.27;;;184.83;;
61204;SDS011;47068;55.780;37.520;2024-02-26T02:12:47;876.47;;;191.87;;
61204;SDS011;47068;55.780;37.520;2024-02-26T02:15:13;938.20;;;207.23;;
61204;SDS011;47068;55.780;37.520;2024-02-26T02:17:39;933.25;;;205.20;;
61204;SDS011;47068;55.780;37.520;2024-02-26T02:20:07;849.90;;;183.90;;
61204;SDS011;47068;55.780;37.520;2024-02-26T02:22:34;835.70;;;188.60;;
61204;SDS011;47068;55.780;37.520;2024-02-26T02:24:59;844.33;;;191.53;;
61204;SDS011;47068;55.780;37.520;2024-02-26T02:27:25;842.83;;;181.98;;
61204;SDS011;47068;55.780;37.520;2024-02-26T02:29:52;857.00;;;186.30;;
61204;SDS011;47068;55.780;37.520;2024-02-26T02:32:18;849.67;;;194.13;;
61204;SDS011;47068;55.780;37.520;2024-02-26T02:34:44;904.57;;;193.53;;
61204;SDS011;47068;55.780;37.520;2024-02-26T02:37:10;849.85;;;184.65;;
61204;SDS011;47068;55.780;37.520;2024-02-26T02:39:36;833.28;;;180.45;;
61204;SDS011;47068;55.780;37.520;2024-02-26T02:42:01;844.15;;;182.80;;
61204;SDS011;47068;55.780;37.520;2024-02-26T02:44:27;834.70;;;192.55;;
61204;SDS011;47068;55.780;37.520;2024-02-26T02:46:52;839.92;;;184.45;;
61204;SDS011;47068;55.780;37.520;2024-02-26T02:49:18;841.00;;;191.35;;
61204;SDS011;47068;55.780;37.520;2024-02-26T02:51:44;836.40;;;186.77;;
61204;SDS011;47068;55.780;37.520;2024-02-26T02:54:09;875.88;;;187.43;;
61204;SDS011;47068;55.780;37.520;2024-02-26T02:56:35;907.17;;;216.07;;
61204;SDS011;47068;55.780;37.520;2024-02-26T02:59:01;832.08;;;180.95;;
61204;SDS011;47068;55.780;37.520;2024-02-26T03:01:27;835.73;;;183.77;;
61204;SDS011;47068;55.780;37.520;2024-02-26T03:03:53;834.23;;;189.13;;
61204;SDS011;47068;55.780;37.520;2024-02-26T03:06:18;830.73;;;188.00;;
61204;SDS011;47068;55.780;37.520;2024-02-26T03:08:46;850.53;;;183.17;;
61204;SDS011;47068;55.780;37.520;2024-02-26T03:11:14;854.45;;;183.45;;
61204;SDS011;47068;55.780;37.520;2024-02-26T03:13:40;841.83;;;182.20;;
61204;SDS011;47068;55.780;37.520;2024-02-26T03:16:06;838.90;;;187.85;;
61204;SDS011;47068;55.780;37.520;2024-02-26T03:18:32;839.10;;;191.10;;
61204;SDS011;47068;55.780;37.520;2024-02-26T03:20:57;848.70;;;184.45;;
61204;SDS011;47068;55.780;37.520;2024-02-26T03:23:23;844.90;;;186.13;;
61204;SDS011;47068;55.780;37.520;2024-02-26T03:25:48;843.03;;;188.00;;
61204;SDS011;47068;55.780;37.520;2024-02-26T03:28:14;861.58;;;189.20;;
61204;SDS011;47068;55.780;37.520;2024-02-26T03:30:40;983.50;;;255.38;;
61204;SDS011;47068;55.780;37.520;2024-02-26T03:33:06;830.60;;;179.87;;
61204;SDS011;47068;55.780;37.520;2024-02-26T03:35:31;835.87;;;182.07;;
61204;SDS011;47068;55.780;37.520;2024-02-26T03:37:56;835.85;;;182.40;;
61204;SDS011;47068;55.780;37.520;2024-02-26T03:40:22;834.57;;;192.70;;
61204;SDS011;47068;55.780;37.520;2024-02-26T03:42:47;828.40;;;186.13;;
61204;SDS011;47068;55.780;37.520;2024-02-26T03:45:13;833.58;;;178.40;;
61204;SDS011;47068;55.780;37.520;2024-02-26T03:47:39;846.65;;;183.70;;
61204;SDS011;47068;55.780;37.520;2024-02-26T03:50:07;828.20;;;184.33;;
61204;SDS011;47068;55.780;37.520;2024-02-26T03:52:33;850.40;;;187.68;;
61204;SDS011;47068;55.780;37.520;2024-02-26T03:54:59;832.97;;;180.18;;
61204;SDS011;47068;55.780;37.520;2024-02-26T03:57:24;843.13;;;180.35;;
61204;SDS011;47068;55.780;37.520;2024-02-26T03:59:50;861.90;;;182.00;;
61204;SDS011;47068;55.780;37.520;2024-02-26T04:02:16;872.92;;;196.55;;
61204;SDS011;47068;55.780;37.520;2024-02-26T04:04:41;866.22;;;198.68;;
61204;SDS011;47068;55.780;37.520;2024-02-26T04:07:07;854.40;;;183.43;;
61204;SDS011;47068;55.780;37.520;2024-02-26T04:09:32;999.38;;;279.88;;
61204;SDS011;47068;55.780;37.520;2024-02-26T04:11:58;938.38;;;266.05;;
61204;SDS011;47068;55.780;37.520;2024-02-26T04:14:23;933.08;;;216.25;;
61204;SDS011;47068;55.780;37.520;2024-02-26T04:16:49;913.83;;;215.77;;
61204;SDS011;47068;55.780;37.520;2024-02-26T04:19:17;895.10;;;204.80;;
61204;SDS011;47068;55.780;37.520;2024-02-26T04:21:43;954.35;;;224.38;;
61204;SDS011;47068;55.780;37.520;2024-02-26T04:24:08;910.58;;;195.00;;
61204;SDS011;47068;55.780;37.520;2024-02-26T04:26:34;914.83;;;208.55;;
61204;SDS011;47068;55.780;37.520;2024-02-26T04:29:00;873.25;;;202.98;;
61204;SDS011;47068;55.780;37.520;2024-02-26T04:31:25;898.33;;;188.38;;
61204;SDS011;47068;55.780;37.520;2024-02-26T04:33:54;878.07;;;198.07;;
61204;SDS011;47068;55.780;37.520;2024-02-26T04:36:19;913.33;;;218.67;;
61204;SDS011;47068;55.780;37.520;2024-02-26T04:38:45;939.22;;;219.60;;
61204;SDS011;47068;55.780;37.520;2024-02-26T04:41:10;948.33;;;205.10;;
61204;SDS011;47068;55.780;37.520;2024-02-26T04:43:36;893.83;;;187.02;;
61204;SDS011;47068;55.780;37.520;2024-02-26T04:46:06;893.87;;;188.70;;
61204;SDS011;47068;55.780;37.520;2024-02-26T04:48:38;978.57;;;220.63;;
61204;SDS011;47068;55.780;37.520;2024-02-26T04:51:04;1007.70;;;205.63;;
61204;SDS011;47068;55.780;37.520;2024-02-26T04:53:30;1044.85;;;226.88;;
61204;SDS011;47068;55.780;37.520;2024-02-26T04:55:55;1017.83;;;212.85;;
61204;SDS011;47068;55.780;37.520;2024-02-26T04:58:21;1032.82;;;223.45;;
61204;SDS011;47068;55.780;37.520;2024-02-26T05:00:46;1053.40;;;210.65;;
61204;SDS011;47068;55.780;37.520;2024-02-26T05:03:12;1047.60;;;214.00;;
61204;SDS011;47068;55.780;37.520;2024-02-26T05:05:47;1029.50;;;219.47;;
61204;SDS011;47068;55.780;37.520;2024-02-26T05:08:13;1033.37;;;223.50;;
61204;SDS011;47068;55.780;37.520;2024-02-26T05:10:38;1020.25;;;231.93;;
61204;SDS011;47068;55.780;37.520;2024-02-26T05:13:08;1024.87;;;209.53;;
61204;SDS011;47068;55.780;37.520;2024-02-26T05:15:34;993.28;;;204.10;;
61204;SDS011;47068;55.780;37.520;2024-02-26T05:18:00;1007.70;;;203.53;;
61204;SDS011;47068;55.780;37.520;2024-02-26T05:20:26;1001.97;;;213.73;;
61204;SDS011;47068;55.780;37.520;2024-02-26T05:22:52;992.67;;;218.27;;
61204;SDS011;47068;55.780;37.520;2024-02-26T05:25:17;1000.07;;;206.93;;
61204;SDS011;47068;55.780;37.520;2024-02-26T05:27:43;1026.30;;;218.32;;
61204;SDS011;47068;55.780;37.520;2024-02-26T05:32:35;1010.90;;;215.50;;
61204;SDS011;47068;55.780;37.520;2024-02-26T05:35:01;980.33;;;217.65;;
61204;SDS011;47068;55.780;37.520;2024-02-26T05:37:28;1019.17;;;209.43;;
61204;SDS011;47068;55.780;37.520;2024-02-26T05:39:54;1025.35;;;228.23;;
61204;SDS011;47068;55.780;37.520;2024-02-26T05:42:20;1031.47;;;210.05;;
61204;SDS011;47068;55.780;37.520;2024-02-26T05:44:45;1030.82;;;219.32;;
61204;SDS011;47068;55.780;37.520;2024-02-26T05:47:11;979.13;;;207.70;;
61204;SDS011;47068;55.780;37.520;2024-02-26T05:49:37;951.20;;;200.87;;
61204;SDS011;47068;55.780;37.520;2024-02-26T05:52:03;928.50;;;206.38;;
61204;SDS011;47068;55.780;37.520;2024-02-26T05:54:28;941.80;;;210.93;;
61204;SDS011;47068;55.780;37.520;2024-02-26T05:56:54;937.97;;;195.97;;
61204;SDS011;47068;55.780;37.520;2024-02-26T05:59:19;933.93;;;203.13;;
61204;SDS011;47068;55.780;37.520;2024-02-26T06:01:45;949.10;;;199.15;;
61204;SDS011;47068;55.780;37.520;2024-02-26T06:04:11;925.08;;;207.75;;
61204;SDS011;47068;55.780;37.520;2024-02-26T06:06:37;890.08;;;196.68;;
61204;SDS011;47068;55.780;37.520;2024-02-26T06:09:02;903.80;;;192.88;;
61204;SDS011;47068;55.780;37.520;2024-02-26T06:11:30;913.23;;;192.10;;
61204;SDS011;47068;55.780;37.520;2024-02-26T06:13:56;919.70;;;193.63;;
61204;SDS011;47068;55.780;37.520;2024-02-26T06:16:21;908.92;;;203.23;;
61204;SDS011;47068;55.780;37.520;2024-02-26T06:18:47;907.42;;;204.50;;
61204;SDS011;47068;55.780;37.520;2024-02-26T06:21:12;945.30;;;200.50;;
61204;SDS011;47068;55.780;37.520;2024-02-26T06:23:38;919.28;;;196.88;;
61204;SDS011;47068;55.780;37.520;2024-02-26T06:26:05;913.77;;;204.30;;
61204;SDS011;47068;55.780;37.520;2024-02-26T06:28:31;917.17;;;206.85;;
61204;SDS011;47068;55.780;37.520;2024-02-26T06:30:58;940.23;;;207.27;;
61204;SDS011;47068;55.780;37.520;2024-02-26T06:33:24;930.25;;;202.52;;
61204;SDS011;47068;55.780;37.520;2024-02-26T06:35:50;942.75;;;203.80;;
61204;SDS011;47068;55.780;37.520;2024-02-26T06:38:15;945.70;;;215.27;;
61204;SDS011;47068;55.780;37.520;2024-02-26T06:40:42;947.50;;;203.47;;
61204;SDS011;47068;55.780;37.520;2024-02-26T06:43:09;958.33;;;212.77;;
61204;SDS011;47068;55.780;37.520;2024-02-26T06:45:34;925.28;;;205.15;;
61204;SDS011;47068;55.780;37.520;2024-02-26T06:48:00;923.57;;;199.97;;
61204;SDS011;47068;55.780;37.520;2024-02-26T06:50:25;946.08;;;216.10;;
61204;SDS011;47068;55.780;37.520;2024-02-26T06:52:51;924.38;;;209.30;;
61204;SDS011;47068;55.780;37.520;2024-02-26T06:55:17;954.85;;;203.77;;
61204;SDS011;47068;55.780;37.520;2024-02-26T06:57:42;953.65;;;204.90;;
61204;SDS011;47068;55.780;37.520;2024-02-26T07:00:09;932.95;;;212.00;;
61204;SDS011;47068;55.780;37.520;2024-02-26T07:02:39;922.00;;;210.03;;
61204;SDS011;47068;55.780;37.520;2024-02-26T07:05:05;917.67;;;203.98;;
61204;SDS011;47068;55.780;37.520;2024-02-26T07:07:31;929.45;;;215.25;;
61204;SDS011;47068;55.780;37.520;2024-02-26T07:09:57;921.38;;;198.20;;
61204;SDS011;47068;55.780;37.520;2024-02-26T07:12:22;969.47;;;222.38;;
61204;SDS011;47068;55.780;37.520;2024-02-26T07:14:49;956.30;;;217.18;;
61204;SDS011;47068;55.780;37.520;2024-02-26T07:17:15;979.87;;;213.37;;
61204;SDS011;47068;55.780;37.520;2024-02-26T07:19:41;951.15;;;204.93;;
61204;SDS011;47068;55.780;37.520;2024-02-26T07:22:08;962.67;;;218.33;;
61204;SDS011;47068;55.780;37.520;2024-02-26T07:24:33;955.30;;;210.85;;
61204;SDS011;47068;55.780;37.520;2024-02-26T07:26:59;760.08;;;195.65;;
61204;SDS011;47068;55.780;37.520;2024-02-26T07:29:24;789.33;;;209.70;;
61204;SDS011;47068;55.780;37.520;2024-02-26T07:31:50;855.73;;;216.93;;
61204;SDS011;47068;55.780;37.520;2024-02-26T07:34:15;1264.45;;;270.83;;
61204;SDS011;47068;55.780;37.520;2024-02-26T07:36:41;850.72;;;226.50;;
61204;SDS011;47068;55.780;37.520;2024-02-26T07:39:06;913.00;;;233.40;;
61204;SDS011;47068;55.780;37.520;2024-02-26T07:41:31;1164.88;;;294.23;;
61204;SDS011;47068;55.780;37.520;2024-02-26T07:43:57;811.15;;;222.63;;
61204;SDS011;47068;55.780;37.520;2024-02-26T07:46:23;818.37;;;234.40;;
61204;SDS011;47068;55.780;37.520;2024-02-26T07:48:49;815.80;;;236.63;;
61204;SDS011;47068;55.780;37.520;2024-02-26T07:51:15;817.80;;;241.13;;
61204;SDS011;47068;55.780;37.520;2024-02-26T07:53:40;832.70;;;240.53;;
61204;SDS011;47068;55.780;37.520;2024-02-26T07:56:06;844.75;;;239.73;;
61204;SDS011;47068;55.780;37.520;2024-02-26T07:58:32;863.80;;;241.15;;
61204;SDS011;47068;55.780;37.520;2024-02-26T08:00:58;856.70;;;245.27;;
61204;SDS011;47068;55.780;37.520;2024-02-26T08:03:24;880.70;;;241.25;;
61204;SDS011;47068;55.780;37.520;2024-02-26T08:05:50;902.30;;;245.85;;
61204;SDS011;47068;55.780;37.520;2024-02-26T08:08:16;941.87;;;245.57;;
61204;SDS011;47068;55.780;37.520;2024-02-26T08:10:42;1083.55;;;262.33;;
61204;SDS011;47068;55.780;37.520;2024-02-26T08:13:08;1316.20;;;312.05;;
61204;SDS011;47068;55.780;37.520;2024-02-26T08:15:34;1329.03;;;312.58;;
61204;SDS011;47068;55.780;37.520;2024-02-26T08:18:02;1244.90;;;310.80;;
61204;SDS011;47068;55.780;37.520;2024-02-26T08:20:28;1230.70;;;293.77;;
61204;SDS011;47068;55.780;37.520;2024-02-26T08:22:55;1222.03;;;291.80;;
61204;SDS011;47068;55.780;37.520;2024-02-26T08:25:20;703.95;;;196.40;;
61204;SDS011;47068;55.780;37.520;2024-02-26T08:27:46;663.73;;;192.00;;
61204;SDS011;47068;55.780;37.520;2024-02-26T08:30:12;668.33;;;185.13;;
61204;SDS011;47068;55.780;37.520;2024-02-26T08:32:48;674.73;;;191.77;;
61204;SDS011;47068;55.780;37.520;2024-02-26T08:35:13;672.53;;;190.67;;
61204;SDS011;47068;55.780;37.520;2024-02-26T08:37:39;677.85;;;191.45;;
61204;SDS011;47068;55.780;37.520;2024-02-26T08:40:06;672.20;;;189.85;;
61204;SDS011;47068;55.780;37.520;2024-02-26T08:42:32;664.75;;;187.93;;
61204;SDS011;47068;55.780;37.520;2024-02-26T08:44:57;678.03;;;190.77;;
61204;SDS011;47068;55.780;37.520;2024-02-26T08:47:25;684.10;;;195.97;;
61204;SDS011;47068;55.780;37.520;2024-02-26T08:49:51;632.28;;;189.20;;
61204;SDS011;47068;55.780;37.520;2024-02-26T08:52:16;626.67;;;185.98;;
61204;SDS011;47068;55.780;37.520;2024-02-26T08:54:42;631.47;;;184.10;;
61204;SDS011;47068;55.780;37.520;2024-02-26T08:57:07;630.97;;;183.63;;
61204;SDS011;47068;55.780;37.520;2024-02-26T08:59:33;636.38;;;190.50;;
61204;SDS011;47068;55.780;37.520;2024-02-26T09:01:59;654.45;;;184.98;;
61204;SDS011;47068;55.780;37.520;2024-02-26T09:04:24;641.10;;;181.87;;
61204;SDS011;47068;55.780;37.520;2024-02-26T09:06:51;647.77;;;189.57;;
61204;SDS011;47068;55.780;37.520;2024-02-26T09:09:17;653.10;;;182.38;;
61204;SDS011;47068;55.780;37.520;2024-02-26T09:11:42;671.88;;;192.25;;
61204;SDS011;47068;55.780;37.520;2024-02-26T09:14:08;729.67;;;193.48;;
61204;SDS011;47068;55.780;37.520;2024-02-26T09:16:33;737.88;;;197.82;;
61204;SDS011;47068;55.780;37.520;2024-02-26T09:18:59;740.03;;;197.00;;
61204;SDS011;47068;55.780;37.520;2024-02-26T09:21:24;728.70;;;199.67;;
61204;SDS011;47068;55.780;37.520;2024-02-26T09:23:52;740.67;;;193.80;;
61204;SDS011;47068;55.780;37.520;2024-02-26T09:26:17;739.65;;;196.68;;
61204;SDS011;47068;55.780;37.520;2024-02-26T09:28:43;750.22;;;201.35;;
61204;SDS011;47068;55.780;37.520;2024-02-26T09:33:35;726.13;;;196.57;;
61204;SDS011;47068;55.780;37.520;2024-02-26T09:36:00;733.47;;;190.75;;
61204;SDS011;47068;55.780;37.520;2024-02-26T09:38:26;722.65;;;198.07;;
61204;SDS011;47068;55.780;37.520;2024-02-26T09:43:20;726.37;;;185.63;;
61204;SDS011;47068;55.780;37.520;2024-02-26T09:45:50;717.60;;;189.63;;
61204;SDS011;47068;55.780;37.520;2024-02-26T09:48:18;721.47;;;200.33;;
61204;SDS011;47068;55.780;37.520;2024-02-26T09:53:10;738.13;;;191.87;;
61204;SDS011;47068;55.780;37.520;2024-02-26T09:55:37;736.67;;;197.53;;
61204;SDS011;47068;55.780;37.520;2024-02-26T09:58:04;749.38;;;203.95;;
61204;SDS011;47068;55.780;37.520;2024-02-26T10:00:31;771.73;;;207.17;;
61204;SDS011;47068;55.780;37.520;2024-02-26T10:03:03;819.87;;;213.37;;
61204;SDS011;47068;55.780;37.520;2024-02-26T10:05:31;725.33;;;192.07;;
61204;SDS011;47068;55.780;37.520;2024-02-26T10:07:57;695.13;;;197.00;;
61204;SDS011;47068;55.780;37.520;2024-02-26T10:10:23;705.70;;;194.68;;
61204;SDS011;47068;55.780;37.520;2024-02-26T10:12:48;704.28;;;193.60;;
61204;SDS011;47068;55.780;37.520;2024-02-26T10:15:14;699.65;;;189.40;;
61204;SDS011;47068;55.780;37.520;2024-02-26T10:17:40;703.10;;;191.15;;
61204;SDS011;47068;55.780;37.520;2024-02-26T10:20:13;695.33;;;194.00;;
61204;SDS011;47068;55.780;37.520;2024-02-26T10:22:41;688.23;;;192.23;;
61204;SDS011;47068;55.780;37.520;2024-02-26T10:25:07;688.50;;;191.85;;
61204;SDS011;47068;55.780;37.520;2024-02-26T10:27:33;701.20;;;192.82;;
61204;SDS011;47068;55.780;37.520;2024-02-26T10:30:02;709.47;;;197.17;;
61204;SDS011;47068;55.780;37.520;2024-02-26T10:32:30;688.87;;;197.10;;
61204;SDS011;47068;55.780;37.520;2024-02-26T10:34:56;689.10;;;191.27;;
61204;SDS011;47068;55.780;37.520;2024-02-26T10:37:22;675.97;;;191.07;;
61204;SDS011;47068;55.780;37.520;2024-02-26T10:42:14;657.37;;;174.53;;
61204;SDS011;47068;55.780;37.520;2024-02-26T10:44:40;672.25;;;179.75;;
61204;SDS011;47068;55.780;37.520;2024-02-26T10:47:07;662.20;;;183.13;;
61204;SDS011;47068;55.780;37.520;2024-02-26T10:49:33;718.07;;;187.57;;
61204;SDS011;47068;55.780;37.520;2024-02-26T10:52:00;716.33;;;189.23;;
61204;SDS011;47068;55.780;37.520;2024-02-26T10:54:29;724.47;;;189.33;;
61204;SDS011;47068;55.780;37.520;2024-02-26T10:56:56;706.97;;;185.50;;
61204;SDS011;47068;55.780;37.520;2024-02-26T10:59:25;716.73;;;189.60;;
61204;SDS011;47068;55.780;37.520;2024-02-26T11:04:17;699.93;;;184.67;;
61204;SDS011;47068;55.780;37.520;2024-02-26T11:06:44;711.40;;;184.18;;
61204;SDS011;47068;55.780;37.520;2024-02-26T11:09:11;712.17;;;184.07;;
61204;SDS011;47068;55.780;37.520;2024-02-26T11:11:38;720.50;;;188.10;;
61204;SDS011;47068;55.780;37.520;2024-02-26T11:14:05;707.57;;;189.83;;
61204;SDS011;47068;55.780;37.520;2024-02-26T11:16:34;715.07;;;193.30;;
61204;SDS011;47068;55.780;37.520;2024-02-26T11:19:00;723.03;;;187.40;;
61204;SDS011;47068;55.780;37.520;2024-02-26T11:21:27;721.13;;;189.83;;
61204;SDS011;47068;55.780;37.520;2024-02-26T11:24:03;726.97;;;189.90;;
61204;SDS011;47068;55.780;37.520;2024-02-26T11:26:51;740.10;;;194.73;;
61204;SDS011;47068;55.780;37.520;2024-02-26T11:29:25;746.55;;;203.32;;
61204;SDS011;47068;55.780;37.520;2024-02-26T11:31:57;723.83;;;190.53;;
61204;SDS011;47068;55.780;37.520;2024-02-26T11:34:25;746.47;;;197.10;;
61204;SDS011;47068;55.780;37.520;2024-02-26T11:36:51;747.00;;;200.35;;
61204;SDS011;47068;55.780;37.520;2024-02-26T11:39:16;744.92;;;194.82;;
61204;SDS011;47068;55.780;37.520;2024-02-26T11:41:42;760.25;;;194.75;;
61204;SDS011;47068;55.780;37.520;2024-02-26T11:46:41;733.73;;;191.57;;
61204;SDS011;47068;55.780;37.520;2024-02-26T11:49:29;738.43;;;190.53;;
61204;SDS011;47068;55.780;37.520;2024-02-26T11:51:57;741.73;;;193.07;;
61204;SDS011;47068;55.780;37.520;2024-02-26T11:57:04;758.40;;;197.63;;
61204;SDS011;47068;55.780;37.520;2024-02-26T11:59:44;775.10;;;189.20;;
61204;SDS011;47068;55.780;37.520;2024-02-26T12:02:10;807.38;;;200.90;;
61204;SDS011;47068;55.780;37.520;2024-02-26T12:04:37;1265.80;;;300.73;;
61204;SDS011;47068;55.780;37.520;2024-02-26T12:07:03;1248.90;;;290.00;;
61204;SDS011;47068;55.780;37.520;2024-02-26T12:09:37;1201.57;;;265.30;;
61204;SDS011;47068;55.780;37.520;2024-02-26T12:12:07;1221.17;;;263.03;;
61204;SDS011;47068;55.780;37.520;2024-02-26T12:14:37;1207.90;;;272.87;;
61204;SDS011;47068;55.780;37.520;2024-02-26T12:17:19;1234.80;;;269.40;;
61204;SDS011;47068;55.780;37.520;2024-02-26T12:19:45;1182.70;;;265.70;;
61204;SDS011;47068;55.780;37.520;2024-02-26T12:22:14;1163.50;;;256.15;;
61204;SDS011;47068;55.780;37.520;2024-02-26T12:24:40;1153.00;;;256.30;;
61204;SDS011;47068;55.780;37.520;2024-02-26T12:27:06;1191.32;;;258.10;;
61204;SDS011;47068;55.780;37.520;2024-02-26T12:29:31;1179.33;;;241.00;;
61204;SDS011;47068;55.780;37.520;2024-02-26T12:31:57;1239.78;;;253.98;;
61204;SDS011;47068;55.780;37.520;2024-02-26T12:34:23;1182.32;;;252.48;;
61204;SDS011;47068;55.780;37.520;2024-02-26T12:36:49;1066.80;;;221.73;;
61204;SDS011;47068;55.780;37.520;2024-02-26T12:39:14;1054.72;;;230.38;;
61204;SDS011;47068;55.780;37.520;2024-02-26T12:41:40;1014.60;;;224.73;;
61204;SDS011;47068;55.780;37.520;2024-02-26T12:44:07;1045.43;;;219.55;;
61204;SDS011;47068;55.780;37.520;2024-02-26T12:46:33;1033.53;;;228.90;;
61204;SDS011;47068;55.780;37.520;2024-02-26T12:48:59;1035.22;;;230.70;;
61204;SDS011;47068;55.780;37.520;2024-02-26T12:51:25;1039.80;;;227.55;;
61204;SDS011;47068;55.780;37.520;2024-02-26T12:53:52;1155.13;;;246.77;;
61204;SDS011;47068;55.780;37.520;2024-02-26T12:56:19;827.67;;;202.37;;
61204;SDS011;47068;55.780;37.520;2024-02-26T12:58:45;886.13;;;207.70;;
61204;SDS011;47068;55.780;37.520;2024-02-26T13:01:14;891.00;;;212.50;;
61204;SDS011;47068;55.780;37.520;2024-02-26T13:03:41;892.50;;;210.97;;
61204;SDS011;47068;55.780;37.520;2024-02-26T13:08:34;894.03;;;199.17;;
61204;SDS011;47068;55.780;37.520;2024-02-26T13:11:00;898.15;;;201.05;;
61204;SDS011;47068;55.780;37.520;2024-02-26T13:13:25;901.72;;;213.32;;
61204;SDS011;47068;55.780;37.520;2024-02-26T13:16:01;915.97;;;214.68;;
61204;SDS011;47068;55.780;37.520;2024-02-26T13:18:30;920.97;;;211.93;;
61204;SDS011;47068;55.780;37.520;2024-02-26T13:21:06;923.43;;;218.07;;
61204;SDS011;47068;55.780;37.520;2024-02-26T13:23:36;920.17;;;214.70;;
61204;SDS011;47068;55.780;37.520;2024-02-26T13:26:03;940.47;;;212.17;;
61204;SDS011;47068;55.780;37.520;2024-02-26T13:28:29;978.22;;;217.50;;
61204;SDS011;47068;55.780;37.520;2024-02-26T13:30:55;990.97;;;216.63;;
61204;SDS011;47068;55.780;37.520;2024-02-26T13:33:25;978.83;;;212.27;;
61204;SDS011;47068;55.780;37.520;2024-02-26T13:35:58;974.10;;;219.33;;
61204;SDS011;47068;55.780;37.520;2024-02-26T13:38:25;976.50;;;217.67;;
61204;SDS011;47068;55.780;37.520;2024-02-26T13:40:53;979.43;;;222.67;;
61204;SDS011;47068;55.780;37.520;2024-02-26T13:43:19;968.45;;;213.25;;
61204;SDS011;47068;55.780;37.520;2024-02-26T13:45:45;980.15;;;221.60;;
61204;SDS011;47068;55.780;37.520;2024-02-26T13:48:14;947.93;;;214.43;;
61204;SDS011;47068;55.780;37.520;2024-02-26T13:50:40;951.17;;;213.03;;
61204;SDS011;47068;55.780;37.520;2024-02-26T13:53:10;935.33;;;214.13;;
61204;SDS011;47068;55.780;37.520;2024-02-26T13:55:38;941.83;;;207.23;;
61204;SDS011;47068;55.780;37.520;2024-02-26T13:58:05;925.97;;;213.80;;
61204;SDS011;47068;55.780;37.520;2024-02-26T14:00:32;934.37;;;211.20;;
61204;SDS011;47068;55.780;37.520;2024-02-26T14:02:59;933.43;;;208.97;;